createdAt,value
2023-04-04T00:00:51.793Z,2.70
2023-04-04T00:03:20.169Z,3.40
2023-04-04T00:05:49.111Z,4.20
2023-04-04T00:08:17.596Z,4.30
2023-04-04T00:10:45.759Z,3.40
2023-04-04T00:13:13.834Z,3.00
2023-04-04T00:15:41.803Z,3.70
2023-04-04T00:18:09.905Z,4.10
2023-04-04T00:20:38.307Z,4.30
2023-04-04T00:23:06.830Z,2.60
2023-04-04T00:25:34.794Z,3.40
2023-04-04T00:28:03.263Z,3.10
2023-04-04T00:30:34.324Z,3.20
2023-04-04T00:33:02.437Z,2.80
2023-04-04T00:35:30.614Z,3.40
2023-04-04T00:37:58.637Z,2.90
2023-04-04T00:40:26.757Z,3.60
2023-04-04T00:42:55.185Z,2.80
2023-04-04T00:45:24.292Z,2.60
2023-04-04T00:47:52.892Z,5.20
2023-04-04T00:50:21.304Z,2.80
2023-04-04T00:52:49.390Z,3.30
2023-04-04T00:55:17.697Z,3.10
2023-04-04T00:57:46.467Z,3.70
2023-04-04T01:00:15.568Z,3.20
2023-04-04T01:02:43.764Z,4.80
2023-04-04T01:05:12.740Z,3.30
2023-04-04T01:07:43.116Z,2.70
2023-04-04T01:10:13.331Z,3.10
2023-04-04T01:12:43.445Z,3.70
2023-04-04T01:15:11.773Z,3.10
2023-04-04T01:17:41.775Z,3.80
2023-04-04T01:20:21.124Z,2.20
2023-04-04T01:22:55.844Z,2.80
2023-04-04T01:25:34.864Z,1.50
2023-04-04T01:28:10.010Z,3.20
2023-04-04T01:30:40.768Z,2.90
2023-04-04T01:33:25.816Z,2.90
2023-04-04T01:36:08.944Z,4.30
2023-04-04T01:38:50.936Z,2.40
2023-04-04T01:41:21.596Z,3.20
2023-04-04T01:43:56.312Z,2.80
2023-04-04T01:46:25.319Z,1.80
2023-04-04T01:48:53.980Z,2.90
2023-04-04T01:51:26.953Z,3.40
2023-04-04T01:53:55.741Z,3.20
2023-04-04T01:56:24.949Z,2.90
2023-04-04T01:58:53.987Z,2.90
2023-04-04T02:01:22.153Z,3.10
2023-04-04T02:03:50.247Z,4.10
2023-04-04T02:06:19.125Z,4.20
2023-04-04T02:08:48.367Z,3.10
2023-04-04T02:11:17.767Z,3.90
2023-04-04T02:13:45.941Z,3.40
2023-04-04T02:16:16.040Z,2.50
2023-04-04T02:18:44.135Z,4.00
2023-04-04T02:21:12.405Z,3.70
2023-04-04T02:23:40.382Z,3.90
2023-04-04T02:26:08.335Z,4.70
2023-04-04T02:28:38.558Z,2.00
2023-04-04T02:31:07.524Z,4.60
2023-04-04T02:33:35.837Z,2.90
2023-04-04T02:36:06.229Z,3.20
2023-04-04T02:38:34.296Z,3.70
2023-04-04T02:41:03.229Z,3.30
2023-04-04T02:43:31.491Z,2.50
2023-04-04T02:46:01.219Z,3.80
2023-04-04T02:48:33.799Z,2.70
2023-04-04T02:51:03.170Z,2.80
2023-04-04T02:53:31.861Z,2.40
2023-04-04T02:56:04.231Z,2.90
2023-04-04T02:58:32.933Z,2.80
2023-04-04T03:01:01.233Z,2.80
2023-04-04T03:03:32.040Z,2.80
2023-04-04T03:06:01.031Z,3.70
2023-04-04T03:08:29.638Z,3.50
2023-04-04T03:10:59.536Z,2.90
2023-04-04T03:13:28.107Z,2.90
2023-04-04T03:16:04.796Z,3.60
2023-04-04T03:18:42.102Z,2.80
2023-04-04T03:21:10.236Z,2.50
2023-04-04T03:23:38.813Z,2.80
2023-04-04T03:26:07.098Z,2.40
2023-04-04T03:28:35.370Z,2.80
2023-04-04T03:31:05.276Z,3.30
2023-04-04T03:33:38.347Z,3.90
2023-04-04T03:36:12.174Z,3.30
2023-04-04T03:38:40.617Z,3.60
2023-04-04T03:41:08.946Z,3.10
2023-04-04T03:43:37.612Z,4.20
2023-04-04T03:46:07.329Z,2.40
2023-04-04T03:48:35.435Z,1.90
2023-04-04T03:51:04.955Z,3.20
2023-04-04T03:53:32.974Z,2.10
2023-04-04T03:56:01.044Z,2.90
2023-04-04T03:58:29.421Z,4.20
2023-04-04T04:00:57.391Z,2.10
2023-04-04T04:03:28.442Z,3.10
2023-04-04T04:05:56.901Z,3.60
2023-04-04T04:08:25.358Z,5.00
2023-04-04T04:10:53.553Z,2.50
2023-04-04T04:13:21.832Z,3.20
2023-04-04T04:15:50.260Z,2.60
2023-04-04T04:18:21.553Z,2.90
2023-04-04T04:20:49.845Z,4.00
2023-04-04T04:23:17.900Z,8.10
2023-04-04T04:25:48.155Z,2.80
2023-04-04T04:28:18.558Z,3.80
2023-04-04T04:30:47.929Z,3.10
2023-04-04T04:33:19.559Z,3.10
2023-04-04T04:36:01.930Z,3.60
2023-04-04T04:38:34.598Z,3.00
2023-04-04T04:41:03.498Z,3.70
2023-04-04T04:43:39.536Z,4.70
2023-04-04T04:46:08.940Z,2.90
2023-04-04T04:48:37.860Z,4.20
2023-04-04T04:51:06.510Z,2.40
2023-04-04T04:53:49.941Z,5.90
2023-04-04T04:56:18.025Z,3.90
2023-04-04T04:58:49.291Z,2.60
2023-04-04T05:01:22.538Z,3.70
2023-04-04T05:03:52.195Z,2.50
2023-04-04T05:06:26.374Z,3.40
2023-04-04T05:08:55.876Z,3.50
2023-04-04T05:11:28.365Z,2.30
2023-04-04T05:13:56.675Z,2.90
2023-04-04T05:16:25.605Z,2.90
2023-04-04T05:18:56.758Z,2.80
2023-04-04T05:21:24.835Z,2.40
2023-04-04T05:23:54.028Z,3.30
2023-04-04T05:26:22.611Z,2.50
2023-04-04T05:28:52.215Z,2.90
2023-04-04T05:31:21.428Z,4.30
2023-04-04T05:33:50.709Z,3.10
2023-04-04T05:36:37.477Z,3.90
2023-04-04T05:39:07.436Z,3.20
2023-04-04T05:41:38.993Z,4.00
2023-04-04T05:44:13.419Z,4.20
2023-04-04T05:46:41.892Z,2.10
2023-04-04T05:49:09.968Z,3.70
2023-04-04T05:51:40.083Z,4.20
2023-04-04T05:54:16.351Z,4.50
2023-04-04T05:56:44.772Z,3.40
2023-04-04T05:59:18.953Z,3.90
2023-04-04T06:01:54.989Z,2.90
2023-04-04T06:04:23.170Z,3.40
2023-04-04T06:06:52.783Z,3.60
2023-04-04T06:09:22.077Z,4.40
2023-04-04T06:11:50.320Z,2.90
2023-04-04T06:14:18.522Z,3.10
2023-04-04T06:16:47.612Z,4.10
2023-04-04T06:19:17.013Z,2.60
2023-04-04T06:21:45.088Z,2.50
2023-04-04T06:24:14.586Z,4.20
2023-04-04T06:26:43.086Z,2.70
2023-04-04T06:29:11.630Z,2.80
2023-04-04T06:31:41.228Z,2.80
2023-04-04T06:34:13.122Z,5.00
2023-04-04T06:36:52.962Z,2.70
2023-04-04T06:39:21.543Z,3.80
2023-04-04T06:41:50.953Z,4.70
2023-04-04T06:44:23.009Z,3.00
2023-04-04T06:46:52.044Z,2.40
2023-04-04T06:49:20.178Z,2.80
2023-04-04T06:51:50.951Z,3.50
2023-04-04T06:54:19.498Z,3.10
2023-04-04T06:56:48.290Z,4.50
2023-04-04T06:59:16.867Z,3.10
2023-04-04T07:01:46.312Z,3.10
2023-04-04T07:04:14.537Z,2.40
2023-04-04T07:06:42.618Z,2.80
2023-04-04T07:09:18.426Z,3.20
2023-04-04T07:11:54.417Z,3.60
2023-04-04T07:14:25.628Z,3.40
2023-04-04T07:16:55.442Z,2.60
2023-04-04T07:19:24.769Z,3.60
2023-04-04T07:21:53.872Z,2.60
2023-04-04T07:24:22.161Z,3.00
2023-04-04T07:26:50.389Z,3.30
2023-04-04T07:29:18.385Z,3.00
2023-04-04T07:31:46.375Z,3.60
2023-04-04T07:34:14.530Z,2.70
2023-04-04T07:36:43.010Z,3.80
2023-04-04T07:39:11.184Z,2.10
2023-04-04T07:41:39.348Z,2.40
2023-04-04T07:44:07.420Z,3.90
2023-04-04T07:46:35.598Z,2.80
2023-04-04T07:49:03.925Z,2.80
2023-04-04T07:51:31.944Z,2.20
2023-04-04T07:54:00.026Z,2.00
2023-04-04T07:56:28.076Z,2.10
2023-04-04T07:58:56.326Z,3.20
2023-04-04T08:01:24.352Z,2.90
2023-04-04T08:03:53.788Z,2.60
2023-04-04T08:06:22.287Z,1.80
2023-04-04T08:08:50.867Z,2.50
2023-04-04T08:11:18.857Z,3.40
2023-04-04T08:13:46.920Z,3.40
2023-04-04T08:16:14.919Z,1.80
2023-04-04T08:18:43.081Z,3.30
2023-04-04T08:21:11.030Z,2.50
2023-04-04T08:23:39.024Z,2.10
2023-04-04T08:26:07.073Z,2.50
2023-04-04T08:28:36.949Z,2.30
2023-04-04T08:31:05.236Z,4.60
2023-04-04T08:33:44.532Z,1.90
2023-04-04T08:36:16.374Z,3.50
2023-04-04T08:38:44.817Z,3.50
2023-04-04T08:41:13.704Z,3.60
2023-04-04T08:43:46.091Z,3.50
2023-04-04T08:46:15.901Z,4.70
2023-04-04T08:48:44.928Z,2.80
2023-04-04T08:51:14.693Z,3.20
2023-04-04T08:53:43.707Z,1.90
2023-04-04T08:56:12.042Z,2.50
2023-04-04T08:58:40.377Z,3.10
2023-04-04T09:01:08.784Z,3.00
2023-04-04T09:03:38.191Z,2.20
2023-04-04T09:06:06.570Z,3.30
2023-04-04T09:08:35.727Z,2.90
2023-04-04T09:11:04.581Z,3.40
2023-04-04T09:13:32.789Z,2.40
2023-04-04T09:16:01.221Z,2.00
2023-04-04T09:18:29.945Z,3.10
2023-04-04T09:20:57.983Z,1.50
2023-04-04T09:23:25.981Z,2.00
2023-04-04T09:28:26.396Z,3.10
2023-04-04T09:30:54.602Z,2.70
2023-04-04T09:33:26.779Z,1.70
2023-04-04T09:35:57.335Z,2.60
2023-04-04T09:38:30.387Z,2.30
2023-04-04T09:40:58.962Z,1.70
2023-04-04T09:43:31.190Z,2.30
2023-04-04T09:46:01.211Z,5.30
2023-04-04T09:48:34.812Z,5.60
2023-04-04T09:51:05.084Z,4.90
2023-04-04T09:53:41.825Z,2.20
2023-04-04T09:56:10.122Z,2.20
2023-04-04T09:58:46.320Z,2.40
2023-04-04T10:01:21.005Z,2.40
2023-04-04T10:03:54.842Z,2.40
2023-04-04T10:06:23.173Z,2.10
2023-04-04T10:08:52.076Z,2.70
2023-04-04T10:11:40.456Z,1.70
2023-04-04T10:14:09.577Z,2.70
2023-04-04T10:16:38.328Z,1.50
2023-04-04T10:19:08.105Z,2.20
2023-04-04T10:21:36.839Z,1.40
2023-04-04T10:24:10.003Z,1.80
2023-04-04T10:26:38.313Z,4.70
2023-04-04T10:29:06.555Z,3.60
2023-04-04T10:31:41.698Z,2.80
2023-04-04T10:34:22.370Z,2.70
2023-04-04T10:36:52.909Z,3.90
2023-04-04T10:39:27.522Z,2.70
2023-04-04T10:41:56.670Z,2.30
2023-04-04T10:44:40.525Z,2.60
2023-04-04T10:47:29.632Z,4.80
2023-04-04T10:49:57.990Z,3.70
2023-04-04T10:52:28.906Z,3.20
2023-04-04T10:55:07.421Z,5.00
2023-04-04T10:57:45.703Z,2.90
2023-04-04T11:00:17.982Z,2.30
2023-04-04T11:02:48.697Z,2.90
2023-04-04T11:05:26.824Z,2.00
2023-04-04T11:10:37.086Z,1.60
2023-04-04T11:13:29.496Z,3.30
2023-04-04T11:16:17.092Z,4.70
2023-04-04T11:18:48.063Z,1.70
2023-04-04T11:21:24.267Z,4.40
2023-04-04T11:23:52.209Z,2.70
2023-04-04T11:26:26.602Z,3.20
2023-04-04T11:28:58.883Z,2.90
2023-04-04T11:31:34.915Z,4.30
2023-04-04T11:34:08.898Z,3.80
2023-04-04T11:36:37.101Z,2.20
2023-04-04T11:39:34.391Z,2.20
2023-04-04T11:42:10.625Z,2.40
2023-04-04T11:45:04.932Z,3.30
2023-04-04T11:47:33.786Z,2.80
2023-04-04T11:50:07.318Z,2.00
2023-04-04T11:52:35.539Z,4.50
2023-04-04T11:55:15.638Z,3.10
2023-04-04T11:57:43.673Z,3.00
2023-04-04T12:00:15.703Z,2.30
2023-04-04T12:02:44.511Z,2.70
2023-04-04T12:05:12.785Z,1.70
2023-04-04T12:07:41.668Z,1.90
2023-04-04T12:10:10.995Z,2.00
2023-04-04T12:12:39.716Z,2.40
2023-04-04T12:15:16.969Z,3.10
2023-04-04T12:17:46.516Z,2.90
2023-04-04T12:20:17.709Z,3.10
2023-04-04T12:22:50.074Z,2.70
2023-04-04T12:25:23.563Z,3.10
2023-04-04T12:27:53.343Z,3.10
2023-04-04T12:30:21.873Z,2.10
2023-04-04T12:32:50.982Z,2.10
2023-04-04T12:35:19.258Z,2.10
2023-04-04T12:38:00.927Z,2.20
2023-04-04T12:40:33.621Z,2.20
2023-04-04T12:43:02.238Z,3.20
2023-04-04T12:45:30.275Z,2.90
2023-04-04T12:47:58.882Z,2.90
2023-04-04T12:50:28.647Z,3.60
2023-04-04T12:53:18.386Z,3.40
2023-04-04T12:55:50.017Z,3.10
2023-04-04T12:58:19.806Z,3.60
2023-04-04T13:00:50.831Z,2.80
2023-04-04T13:03:22.780Z,2.00
2023-04-04T13:05:54.540Z,3.60
2023-04-04T13:08:22.624Z,2.00
2023-04-04T13:10:59.707Z,2.50
2023-04-04T13:16:38.230Z,1.70
2023-04-04T13:19:06.221Z,3.00
2023-04-04T13:21:35.172Z,3.30
2023-04-04T13:24:04.232Z,3.50
2023-04-04T13:26:32.335Z,3.00
2023-04-04T13:29:00.516Z,4.90
2023-04-04T13:31:29.082Z,2.60
2023-04-04T13:33:57.068Z,2.60
2023-04-04T13:36:25.272Z,1.50
2023-04-04T13:38:53.357Z,2.80
2023-04-04T13:41:21.582Z,2.80
2023-04-04T13:43:50.606Z,3.40
2023-04-04T13:46:18.695Z,2.30
2023-04-04T13:48:46.781Z,3.20
2023-04-04T13:51:14.824Z,2.50
2023-04-04T13:53:45.068Z,2.50
2023-04-04T13:56:18.449Z,2.40
2023-04-04T13:58:47.477Z,2.80
2023-04-04T14:01:16.215Z,3.10
2023-04-04T14:03:44.488Z,3.40
2023-04-04T14:06:12.741Z,3.20
2023-04-04T14:08:41.126Z,3.00
2023-04-04T14:11:09.244Z,2.30
2023-04-04T14:13:37.565Z,3.00
2023-04-04T14:16:08.399Z,3.10
2023-04-04T14:18:36.501Z,3.40
2023-04-04T14:21:05.628Z,2.20
2023-04-04T14:23:33.832Z,2.20
2023-04-04T14:26:02.026Z,4.10
2023-04-04T14:28:30.197Z,3.50
2023-04-04T14:30:58.388Z,3.50
2023-04-04T14:33:26.536Z,2.10
2023-04-04T14:35:54.700Z,2.50
2023-04-04T14:38:22.878Z,3.70
2023-04-04T14:40:51.159Z,3.30
2023-04-04T14:43:19.742Z,2.40
2023-04-04T14:45:47.955Z,3.50
2023-04-04T14:48:16.456Z,3.70
2023-04-04T14:50:46.035Z,3.30
2023-04-04T14:53:14.191Z,2.80
2023-04-04T14:55:42.756Z,2.50
2023-04-04T14:58:11.019Z,2.60
2023-04-04T15:00:39.709Z,3.10
2023-04-04T15:03:08.588Z,3.30
2023-04-04T15:05:36.789Z,1.80
2023-04-04T15:08:04.968Z,2.20
2023-04-04T15:10:33.027Z,2.90
2023-04-04T15:13:01.393Z,3.20
2023-04-04T15:15:29.495Z,3.60
2023-04-04T15:17:57.648Z,3.50
2023-04-04T15:20:25.703Z,3.40
2023-04-04T15:22:53.623Z,2.70
2023-04-04T15:25:21.850Z,2.60
2023-04-04T15:27:49.971Z,2.60
2023-04-04T15:30:18.082Z,3.30
2023-04-04T15:32:46.410Z,3.20
2023-04-04T15:35:19.756Z,5.90
2023-04-04T15:37:49.241Z,4.10
2023-04-04T15:40:18.514Z,3.90
2023-04-04T15:42:47.137Z,4.10
2023-04-04T15:45:15.830Z,3.20
2023-04-04T15:47:45.357Z,4.20
2023-04-04T15:50:13.538Z,5.10
2023-04-04T15:52:41.928Z,5.30
2023-04-04T15:55:14.577Z,5.40
2023-04-04T15:57:44.897Z,4.30
2023-04-04T16:00:14.536Z,2.50
2023-04-04T16:02:43.089Z,2.80
2023-04-04T16:05:11.496Z,3.90
2023-04-04T16:07:39.524Z,4.60
2023-04-04T16:10:09.312Z,4.20
2023-04-04T16:12:37.398Z,4.80
2023-04-04T16:15:07.694Z,5.40
2023-04-04T16:17:35.820Z,6.10
2023-04-04T16:20:06.177Z,4.70
2023-04-04T16:22:34.189Z,4.60
2023-04-04T16:25:02.358Z,4.60
2023-04-04T16:27:30.562Z,4.70
2023-04-04T16:29:58.612Z,5.10
2023-04-04T16:32:26.824Z,4.10
2023-04-04T16:34:54.976Z,6.20
2023-04-04T16:37:23.557Z,4.40
2023-04-04T16:39:52.224Z,5.10
2023-04-04T16:42:20.313Z,4.70
2023-04-04T16:44:49.000Z,5.50
2023-04-04T16:47:17.066Z,3.70
2023-04-04T16:49:47.259Z,4.80
2023-04-04T16:52:16.051Z,6.30
2023-04-04T16:54:44.121Z,4.10
2023-04-04T16:57:12.192Z,2.80
2023-04-04T16:59:40.364Z,3.10
2023-04-04T17:02:08.859Z,2.90
2023-04-04T17:04:41.012Z,2.70
2023-04-04T17:07:10.010Z,3.90
2023-04-04T17:09:38.471Z,3.30
2023-04-04T17:12:06.812Z,2.90
2023-04-04T17:14:35.873Z,4.30
2023-04-04T17:17:05.609Z,2.70
2023-04-04T17:19:35.361Z,2.00
2023-04-04T17:22:03.693Z,2.50
2023-04-04T17:24:32.145Z,3.00
2023-04-04T17:27:01.629Z,2.90
2023-04-04T17:29:30.383Z,4.00
2023-04-04T17:31:58.616Z,3.20
2023-04-04T17:34:26.949Z,2.60
2023-04-04T17:36:55.450Z,3.60
2023-04-04T17:39:23.843Z,3.90
2023-04-04T17:41:52.605Z,4.70
2023-04-04T17:44:22.376Z,4.20
2023-04-04T17:46:50.503Z,4.40
2023-04-04T17:49:20.800Z,3.50
2023-04-04T17:51:49.722Z,5.00
2023-04-04T17:54:17.992Z,5.40
2023-04-04T17:56:47.216Z,6.10
2023-04-04T17:59:15.910Z,6.30
2023-04-04T18:01:44.677Z,5.70
2023-04-04T18:04:13.140Z,5.20
2023-04-04T18:06:41.936Z,6.60
2023-04-04T18:09:10.717Z,6.20
2023-04-04T18:11:39.333Z,8.80
2023-04-04T18:14:07.376Z,8.10
2023-04-04T18:16:39.710Z,8.70
2023-04-04T18:19:10.185Z,4.00
2023-04-04T18:21:38.674Z,5.70
2023-04-04T18:24:11.920Z,5.40
2023-04-04T18:26:40.594Z,5.30
2023-04-04T18:29:09.110Z,3.80
2023-04-04T18:31:37.183Z,4.30
2023-04-04T18:34:05.456Z,4.60
2023-04-04T18:36:33.622Z,5.00
2023-04-04T18:39:01.802Z,6.00
2023-04-04T18:41:29.970Z,5.80
2023-04-04T18:43:58.045Z,4.40
2023-04-04T18:46:26.032Z,5.30
2023-04-04T18:48:54.293Z,4.90
2023-04-04T18:51:23.729Z,7.10
2023-04-04T18:53:52.247Z,4.60
2023-04-04T18:56:21.825Z,5.90
2023-04-04T18:58:50.067Z,5.30
2023-04-04T19:01:18.242Z,4.90
2023-04-04T19:03:47.746Z,6.10
2023-04-04T19:06:15.895Z,6.00
2023-04-04T19:08:44.730Z,5.70
2023-04-04T19:11:12.756Z,6.70
2023-04-04T19:13:41.137Z,4.70
2023-04-04T19:16:09.146Z,5.70
2023-04-04T19:18:37.281Z,4.70
2023-04-04T19:21:07.628Z,6.10
2023-04-04T19:23:37.338Z,5.90
2023-04-04T19:26:06.698Z,7.00
2023-04-04T19:28:35.390Z,6.80
2023-04-04T19:31:08.879Z,8.00
2023-04-04T19:33:37.275Z,6.90
2023-04-04T19:36:11.986Z,7.40
2023-04-04T19:38:42.822Z,7.40
2023-04-04T19:41:16.957Z,6.50
2023-04-04T19:43:47.272Z,4.70
2023-04-04T19:46:26.883Z,4.80
2023-04-04T19:49:05.225Z,5.50
2023-04-04T19:51:36.971Z,4.50
2023-04-04T19:54:08.613Z,6.10
2023-04-04T19:56:36.704Z,6.30
2023-04-04T19:59:08.114Z,6.80
2023-04-04T20:01:44.690Z,7.30
2023-04-04T20:04:15.547Z,8.20
2023-04-04T20:06:43.627Z,9.00
2023-04-04T20:09:25.874Z,9.20
2023-04-04T20:11:53.892Z,9.20
2023-04-04T20:14:22.375Z,8.90
2023-04-04T20:16:52.375Z,10.00
2023-04-04T20:19:21.781Z,10.70
2023-04-04T20:21:50.180Z,10.50
2023-04-04T20:24:19.262Z,9.40
2023-04-04T20:27:02.938Z,9.30
2023-04-04T20:29:33.705Z,8.60
2023-04-04T20:32:08.018Z,9.40
2023-04-04T20:34:44.766Z,12.50
2023-04-04T20:37:21.981Z,14.10
2023-04-04T20:40:00.881Z,11.50
2023-04-04T20:42:29.948Z,10.60
2023-04-04T20:45:10.493Z,9.70
2023-04-04T20:47:45.940Z,9.90
2023-04-04T20:50:17.188Z,9.20
2023-04-04T20:53:14.024Z,9.70
2023-04-04T20:55:43.460Z,8.80
2023-04-04T20:58:32.594Z,11.20
2023-04-04T21:01:01.835Z,12.20
2023-04-04T21:03:35.052Z,11.90
2023-04-04T21:06:14.785Z,14.30
2023-04-04T21:08:50.699Z,14.00
2023-04-04T21:11:29.189Z,14.30
2023-04-04T21:13:57.478Z,15.80
2023-04-04T21:16:27.670Z,14.10
2023-04-04T21:19:00.773Z,14.90
2023-04-04T21:21:29.469Z,15.40
2023-04-04T21:24:00.720Z,15.00
2023-04-04T21:26:32.258Z,16.60
2023-04-04T21:29:29.838Z,14.70
2023-04-04T21:31:58.167Z,13.50
2023-04-04T21:34:27.844Z,14.80
2023-04-04T21:37:00.513Z,14.20
2023-04-04T21:39:30.204Z,32.60
2023-04-04T21:42:07.792Z,29.60
2023-04-04T21:44:36.792Z,27.10
2023-04-04T21:47:04.859Z,30.20
2023-04-04T21:49:32.815Z,30.20
2023-04-04T21:52:00.884Z,39.20
2023-04-04T21:54:28.857Z,39.90
2023-04-04T21:56:57.089Z,41.60
2023-04-04T21:59:25.125Z,51.50
2023-04-04T22:01:53.216Z,58.80
2023-04-04T22:04:21.504Z,61.50
2023-04-04T22:06:49.615Z,69.10
2023-04-04T22:09:19.436Z,71.40
2023-04-04T22:11:47.502Z,64.10
2023-04-04T22:14:18.141Z,63.50
2023-04-04T22:16:46.560Z,61.00
2023-04-04T22:19:14.685Z,59.80
2023-04-04T22:21:48.277Z,57.90
2023-04-04T22:24:18.706Z,60.20
2023-04-04T22:26:46.995Z,50.50
2023-04-04T22:29:15.049Z,49.60
2023-04-04T22:31:43.392Z,44.60
2023-04-04T22:34:14.147Z,46.20
2023-04-04T22:36:44.090Z,41.90
2023-04-04T22:39:16.356Z,42.90
2023-04-04T22:41:44.617Z,44.60
2023-04-04T22:44:12.697Z,44.80
2023-04-04T22:46:41.282Z,49.20
2023-04-04T22:49:09.345Z,51.30
2023-04-04T22:51:44.166Z,52.70
2023-04-04T22:54:15.130Z,51.50
2023-04-04T22:56:43.349Z,50.50
2023-04-04T22:59:11.621Z,42.40
2023-04-04T23:01:40.204Z,31.60
2023-04-04T23:04:08.584Z,24.20
2023-04-04T23:06:38.530Z,22.50
2023-04-04T23:09:08.157Z,15.80
2023-04-04T23:11:38.658Z,12.90
2023-04-04T23:14:14.970Z,14.30
2023-04-04T23:16:43.209Z,13.80
2023-04-04T23:19:11.485Z,14.80
2023-04-04T23:21:39.710Z,14.60
2023-04-04T23:24:07.830Z,12.70
2023-04-04T23:26:35.801Z,11.50
2023-04-04T23:29:03.897Z,11.70
2023-04-04T23:31:32.026Z,11.70
2023-04-04T23:34:00.648Z,11.00
2023-04-04T23:36:28.776Z,11.60
2023-04-04T23:38:57.103Z,13.60
2023-04-04T23:41:25.347Z,14.30
2023-04-04T23:43:53.830Z,15.60
2023-04-04T23:46:22.613Z,15.40
2023-04-04T23:48:50.589Z,13.90
2023-04-04T23:51:18.662Z,10.60
2023-04-04T23:53:46.636Z,10.40
2023-04-04T23:56:14.566Z,10.00
2023-04-04T23:58:42.564Z,9.50
